Details for SAS (Scandinavian Airlines) at ENGM




Go Back


Latest METAR
Local Time

ENGM 221120Z 22015KT CAVOK 14/01 Q0992 TEMPO 24015G25KT
22/09/2018, 13:37:58

Description
Results
SAS (Scandinavian Airlines) Logo
Number of Pilots based at ENGM
0 Pilots Based here
Number of SAS (Scandinavian Airlines) Flights Departed from ENGM
9 Flights Departed
Number of SAS (Scandinavian Airlines) Flights Arrived at ENGM
9 Flights Arrived
Number of SAS (Scandinavian Airlines) Schedules Departing from ENGM
316 Schedules
Number of SAS (Scandinavian Airlines) Schedules Arriving at ENGM
324 Schedules
Number of SAS (Scandinavian Airlines) Schedules Departing from ENGM availible today
78 Schedules Today
Number of SAS (Scandinavian Airlines) Schedules Arriving at ENGM availible today
78 Schedules Today
Average Landing Rate at ENGM
-200 fpm
SAS (Scandinavian Airlines) Average Landing Rate at ENGM
-166 fpm
Total Fuel Purchased at ENGM by SAS (Scandinavian Airlines)
33,679.69 kgs / 74,250.24 lbs

Pilots Based at ENGM


Pilot ID
Pilot Name
Pilot Rank
No. of Flights
No. of Flying Hours
There are no pilots assigned to this hub!   Will you be the first?
Content